Forside
METAR-TAF:

METAR-TAF

Lufthavne :

Dakar, Senegal

Breddekreds: 14-44N, længdekreds: 017-30W, højde: 27 m

Aktuelle vejr

Denne rapport blev lavet for 14 minutter siden, kl. 13:00 UTC
Vind 8 kt fra vest
Temperatur 27°C
Fugtighed 70%
Tryk 1013 hPa
Sigt 10 km eller mere
Brudte skyer i en højde af 1300 ft
Spredte skyer i en højde af 23000 ft

METAR: GOOY 221300Z 28008KT 9999 BKN013 SCT230 27/21 Q1013

Tid: 13:14 (13:14 UTC)

Vejrudsigter

Denne rapport blev lavet for 1 time og 44 minutter siden, kl. 11:30 UTC
Foreløbig gælder fra 22 på 12 UTC til 23 på 18 UTC
Vind 8 kt fra vest
Sigt 10 km eller mere
Spredte skyer i en højde af 1200 ft
ændring
fra 22 på 18 UTC til 22 på 20 UTC
Brudte skyer i en højde af 800 ft
ændring
fra 22 på 10 UTC til 22 på 12 UTC
Spredte skyer i en højde af 1200 ft

TAF: GOOY 221130Z 2212/2318 28008KT 9999 SCT012 BECMG 2218/2220 BKN008 BECMG 2210/2212 SCT012

Vejrobservationer og prognoser fra mere end 4000 lufthavne (METAR og TAF).

De gule og røde prikker repræsenterer de meteorologiske stationer.

Flyt musen over at se navnet på stationen.

Så klik over at se vejr observationer og prognoser.

At skifte det kort: Klik på de grønne knapper med et sort kors for at zoome ind; på den grønne knap med en bindestreg for at zoome ud; eller på de grønne pile for tilstødende kort.


METAR-TAF: